sensor_id;sensor_type;location;lat;lon;timestamp;temperature;humidity
21331;DHT22;10824;51.632;4.950;2023-01-15T00:02:18;8.00;93.80
21331;DHT22;10824;51.632;4.950;2023-01-15T00:04:45;8.00;92.40
21331;DHT22;10824;51.632;4.950;2023-01-15T00:07:12;8.00;95.50
21331;DHT22;10824;51.632;4.950;2023-01-15T00:09:39;8.00;96.00
21331;DHT22;10824;51.632;4.950;2023-01-15T00:12:06;7.90;95.50
21331;DHT22;10824;51.632;4.950;2023-01-15T00:14:34;7.90;94.50
21331;DHT22;10824;51.632;4.950;2023-01-15T00:17:01;7.90;94.70
21331;DHT22;10824;51.632;4.950;2023-01-15T00:19:28;7.80;94.70
21331;DHT22;10824;51.632;4.950;2023-01-15T00:21:55;7.80;95.30
21331;DHT22;10824;51.632;4.950;2023-01-15T00:24:24;7.80;93.90
21331;DHT22;10824;51.632;4.950;2023-01-15T00:27:10;7.80;94.30
21331;DHT22;10824;51.632;4.950;2023-01-15T00:29:55;7.80;93.80
21331;DHT22;10824;51.632;4.950;2023-01-15T00:32:23;7.80;94.00
21331;DHT22;10824;51.632;4.950;2023-01-15T00:34:54;7.70;94.50
21331;DHT22;10824;51.632;4.950;2023-01-15T00:37:21;7.80;92.70
21331;DHT22;10824;51.632;4.950;2023-01-15T00:39:48;7.70;92.90
21331;DHT22;10824;51.632;4.950;2023-01-15T00:42:16;7.70;91.90
21331;DHT22;10824;51.632;4.950;2023-01-15T00:44:44;7.70;92.30
21331;DHT22;10824;51.632;4.950;2023-01-15T00:47:12;7.70;91.70
21331;DHT22;10824;51.632;4.950;2023-01-15T00:49:43;7.70;92.90
21331;DHT22;10824;51.632;4.950;2023-01-15T00:52:11;7.70;93.60
21331;DHT22;10824;51.632;4.950;2023-01-15T00:54:38;7.70;90.50
21331;DHT22;10824;51.632;4.950;2023-01-15T00:57:05;7.70;92.20
21331;DHT22;10824;51.632;4.950;2023-01-15T00:59:32;7.70;92.90
21331;DHT22;10824;51.632;4.950;2023-01-15T01:01:59;7.60;92.60
21331;DHT22;10824;51.632;4.950;2023-01-15T01:04:27;7.60;93.30
21331;DHT22;10824;51.632;4.950;2023-01-15T01:06:54;7.60;94.80
21331;DHT22;10824;51.632;4.950;2023-01-15T01:09:21;7.60;95.10
21331;DHT22;10824;51.632;4.950;2023-01-15T01:11:49;7.60;93.60
21331;DHT22;10824;51.632;4.950;2023-01-15T01:14:16;7.60;95.10
21331;DHT22;10824;51.632;4.950;2023-01-15T01:16:43;7.50;94.90
21331;DHT22;10824;51.632;4.950;2023-01-15T01:19:16;7.60;95.30
21331;DHT22;10824;51.632;4.950;2023-01-15T01:21:45;7.50;96.10
21331;DHT22;10824;51.632;4.950;2023-01-15T01:24:15;7.50;96.10
21331;DHT22;10824;51.632;4.950;2023-01-15T01:26:43;7.50;96.50
21331;DHT22;10824;51.632;4.950;2023-01-15T01:29:21;7.50;97.50
21331;DHT22;10824;51.632;4.950;2023-01-15T01:31:48;7.50;96.90
21331;DHT22;10824;51.632;4.950;2023-01-15T01:34:17;7.50;96.80
21331;DHT22;10824;51.632;4.950;2023-01-15T01:36:44;7.50;96.90
21331;DHT22;10824;51.632;4.950;2023-01-15T01:39:15;7.50;97.50
21331;DHT22;10824;51.632;4.950;2023-01-15T01:41:43;7.50;98.20
21331;DHT22;10824;51.632;4.950;2023-01-15T01:47:17;7.40;97.50
21331;DHT22;10824;51.632;4.950;2023-01-15T01:49:51;7.40;96.30
21331;DHT22;10824;51.632;4.950;2023-01-15T01:52:47;7.40;96.50
21331;DHT22;10824;51.632;4.950;2023-01-15T01:55:17;7.50;96.80
21331;DHT22;10824;51.632;4.950;2023-01-15T01:57:46;7.40;95.80
21331;DHT22;10824;51.632;4.950;2023-01-15T02:00:14;7.40;95.60
21331;DHT22;10824;51.632;4.950;2023-01-15T02:02:44;7.40;95.80
21331;DHT22;10824;51.632;4.950;2023-01-15T02:05:37;7.40;95.10
21331;DHT22;10824;51.632;4.950;2023-01-15T02:08:06;7.40;95.10
21331;DHT22;10824;51.632;4.950;2023-01-15T02:10:33;7.40;95.00
21331;DHT22;10824;51.632;4.950;2023-01-15T02:13:12;7.40;92.90
21331;DHT22;10824;51.632;4.950;2023-01-15T02:15:45;7.40;93.40
21331;DHT22;10824;51.632;4.950;2023-01-15T02:20:57;7.30;94.20
21331;DHT22;10824;51.632;4.950;2023-01-15T02:30:01;7.30;95.40
21331;DHT22;10824;51.632;4.950;2023-01-15T02:35:09;7.20;96.20
21331;DHT22;10824;51.632;4.950;2023-01-15T02:37:41;7.30;96.10
21331;DHT22;10824;51.632;4.950;2023-01-15T02:40:19;7.20;95.70
21331;DHT22;10824;51.632;4.950;2023-01-15T02:42:48;7.30;96.30
21331;DHT22;10824;51.632;4.950;2023-01-15T02:45:21;7.20;94.80
21331;DHT22;10824;51.632;4.950;2023-01-15T02:47:52;7.20;93.80
21331;DHT22;10824;51.632;4.950;2023-01-15T02:50:26;7.20;95.00
21331;DHT22;10824;51.632;4.950;2023-01-15T02:52:59;7.20;94.70
21331;DHT22;10824;51.632;4.950;2023-01-15T02:55:37;7.20;95.40
21331;DHT22;10824;51.632;4.950;2023-01-15T02:58:10;7.20;94.80
21331;DHT22;10824;51.632;4.950;2023-01-15T03:00:44;7.20;95.40
21331;DHT22;10824;51.632;4.950;2023-01-15T03:03:23;7.20;95.40
21331;DHT22;10824;51.632;4.950;2023-01-15T03:06:18;7.20;95.00
21331;DHT22;10824;51.632;4.950;2023-01-15T03:08:48;7.10;94.30
21331;DHT22;10824;51.632;4.950;2023-01-15T03:11:18;7.10;94.40
21331;DHT22;10824;51.632;4.950;2023-01-15T03:17:08;7.10;95.30
21331;DHT22;10824;51.632;4.950;2023-01-15T03:20:14;7.10;94.30
21331;DHT22;10824;51.632;4.950;2023-01-15T03:22:39;7.10;94.10
21331;DHT22;10824;51.632;4.950;2023-01-15T03:25:24;7.10;93.90
21331;DHT22;10824;51.632;4.950;2023-01-15T03:27:58;7.10;94.40
21331;DHT22;10824;51.632;4.950;2023-01-15T03:30:27;7.00;94.50
21331;DHT22;10824;51.632;4.950;2023-01-15T03:32:55;7.00;95.30
21331;DHT22;10824;51.632;4.950;2023-01-15T03:38:11;7.00;94.80
21331;DHT22;10824;51.632;4.950;2023-01-15T03:41:34;7.00;95.30
21331;DHT22;10824;51.632;4.950;2023-01-15T03:55:25;7.00;92.90
21331;DHT22;10824;51.632;4.950;2023-01-15T03:58:11;7.00;93.10
21331;DHT22;10824;51.632;4.950;2023-01-15T04:00:45;7.00;93.80
21331;DHT22;10824;51.632;4.950;2023-01-15T04:03:18;7.00;92.70
21331;DHT22;10824;51.632;4.950;2023-01-15T04:05:47;7.00;92.80
21331;DHT22;10824;51.632;4.950;2023-01-15T04:08:16;6.90;93.00
21331;DHT22;10824;51.632;4.950;2023-01-15T04:10:54;6.90;94.40
21331;DHT22;10824;51.632;4.950;2023-01-15T04:13:25;6.90;93.80
21331;DHT22;10824;51.632;4.950;2023-01-15T04:15:57;6.90;91.80
21331;DHT22;10824;51.632;4.950;2023-01-15T04:18:25;6.90;92.60
21331;DHT22;10824;51.632;4.950;2023-01-15T04:20:52;6.90;93.60
21331;DHT22;10824;51.632;4.950;2023-01-15T04:23:22;6.80;93.10
21331;DHT22;10824;51.632;4.950;2023-01-15T04:25:49;6.90;93.60
21331;DHT22;10824;51.632;4.950;2023-01-15T04:28:16;6.90;93.00
21331;DHT22;10824;51.632;4.950;2023-01-15T04:30:43;6.90;92.50
21331;DHT22;10824;51.632;4.950;2023-01-15T04:33:11;6.80;92.30
21331;DHT22;10824;51.632;4.950;2023-01-15T04:35:38;6.90;92.00
21331;DHT22;10824;51.632;4.950;2023-01-15T04:38:05;6.80;91.30
21331;DHT22;10824;51.632;4.950;2023-01-15T04:40:32;6.80;91.90
21331;DHT22;10824;51.632;4.950;2023-01-15T04:43:18;6.80;92.40
21331;DHT22;10824;51.632;4.950;2023-01-15T04:46:03;6.80;93.20
21331;DHT22;10824;51.632;4.950;2023-01-15T04:48:30;6.80;91.40
21331;DHT22;10824;51.632;4.950;2023-01-15T04:51:02;6.70;91.40
21331;DHT22;10824;51.632;4.950;2023-01-15T04:53:30;6.70;91.10
21331;DHT22;10824;51.632;4.950;2023-01-15T04:56:01;6.70;92.10
21331;DHT22;10824;51.632;4.950;2023-01-15T04:58:29;6.70;92.40
21331;DHT22;10824;51.632;4.950;2023-01-15T05:00:57;6.70;91.80
21331;DHT22;10824;51.632;4.950;2023-01-15T05:03:30;6.70;91.40
21331;DHT22;10824;51.632;4.950;2023-01-15T05:06:01;6.70;91.30
21331;DHT22;10824;51.632;4.950;2023-01-15T05:08:28;6.60;91.00
21331;DHT22;10824;51.632;4.950;2023-01-15T05:11:03;6.60;91.70
21331;DHT22;10824;51.632;4.950;2023-01-15T05:13:31;6.60;90.30
21331;DHT22;10824;51.632;4.950;2023-01-15T05:16:14;6.60;89.80
21331;DHT22;10824;51.632;4.950;2023-01-15T05:18:47;6.60;90.40
21331;DHT22;10824;51.632;4.950;2023-01-15T05:21:20;6.60;90.70
21331;DHT22;10824;51.632;4.950;2023-01-15T05:23:53;6.60;89.40
21331;DHT22;10824;51.632;4.950;2023-01-15T05:26:20;6.60;89.80
21331;DHT22;10824;51.632;4.950;2023-01-15T05:28:48;6.60;89.80
21331;DHT22;10824;51.632;4.950;2023-01-15T05:31:17;6.60;89.30
21331;DHT22;10824;51.632;4.950;2023-01-15T05:33:46;6.60;90.80
21331;DHT22;10824;51.632;4.950;2023-01-15T05:36:19;6.50;91.10
21331;DHT22;10824;51.632;4.950;2023-01-15T05:38:47;6.50;90.30
21331;DHT22;10824;51.632;4.950;2023-01-15T05:41:17;6.50;91.70
21331;DHT22;10824;51.632;4.950;2023-01-15T05:44:08;6.50;92.10
21331;DHT22;10824;51.632;4.950;2023-01-15T05:46:40;6.50;91.80
21331;DHT22;10824;51.632;4.950;2023-01-15T05:49:20;6.50;91.60
21331;DHT22;10824;51.632;4.950;2023-01-15T05:51:55;6.50;92.10
21331;DHT22;10824;51.632;4.950;2023-01-15T05:54:24;6.50;91.40
21331;DHT22;10824;51.632;4.950;2023-01-15T05:56:52;6.50;92.60
21331;DHT22;10824;51.632;4.950;2023-01-15T05:59:21;6.50;91.60
21331;DHT22;10824;51.632;4.950;2023-01-15T06:01:49;6.50;92.00
21331;DHT22;10824;51.632;4.950;2023-01-15T06:04:16;6.50;92.40
21331;DHT22;10824;51.632;4.950;2023-01-15T06:06:49;6.40;92.70
21331;DHT22;10824;51.632;4.950;2023-01-15T06:09:17;6.40;93.00
21331;DHT22;10824;51.632;4.950;2023-01-15T06:11:45;6.40;93.90
21331;DHT22;10824;51.632;4.950;2023-01-15T06:14:13;6.40;92.70
21331;DHT22;10824;51.632;4.950;2023-01-15T06:16:40;6.40;92.40
21331;DHT22;10824;51.632;4.950;2023-01-15T06:19:08;6.40;93.40
21331;DHT22;10824;51.632;4.950;2023-01-15T06:21:40;6.40;93.50
21331;DHT22;10824;51.632;4.950;2023-01-15T06:24:07;6.30;94.20
21331;DHT22;10824;51.632;4.950;2023-01-15T06:26:36;6.30;93.00
21331;DHT22;10824;51.632;4.950;2023-01-15T06:29:03;6.30;92.50
21331;DHT22;10824;51.632;4.950;2023-01-15T06:31:30;6.30;92.20
21331;DHT22;10824;51.632;4.950;2023-01-15T06:33:58;6.30;92.20
21331;DHT22;10824;51.632;4.950;2023-01-15T06:36:26;6.30;92.40
21331;DHT22;10824;51.632;4.950;2023-01-15T06:38:54;6.20;93.40
21331;DHT22;10824;51.632;4.950;2023-01-15T06:41:23;6.20;92.60
21331;DHT22;10824;51.632;4.950;2023-01-15T06:44:12;6.20;92.40
21331;DHT22;10824;51.632;4.950;2023-01-15T06:47:14;6.30;92.70
21331;DHT22;10824;51.632;4.950;2023-01-15T06:49:52;6.30;92.10
21331;DHT22;10824;51.632;4.950;2023-01-15T06:52:21;6.30;92.70
21331;DHT22;10824;51.632;4.950;2023-01-15T06:54:49;6.20;92.50
21331;DHT22;10824;51.632;4.950;2023-01-15T06:57:16;6.20;92.90
21331;DHT22;10824;51.632;4.950;2023-01-15T06:59:47;6.20;92.00
21331;DHT22;10824;51.632;4.950;2023-01-15T07:02:14;6.20;91.50
21331;DHT22;10824;51.632;4.950;2023-01-15T07:04:41;6.20;90.70
21331;DHT22;10824;51.632;4.950;2023-01-15T07:07:08;6.10;91.60
21331;DHT22;10824;51.632;4.950;2023-01-15T07:09:36;6.10;92.50
21331;DHT22;10824;51.632;4.950;2023-01-15T07:12:03;6.10;91.90
21331;DHT22;10824;51.632;4.950;2023-01-15T07:14:30;6.10;93.30
21331;DHT22;10824;51.632;4.950;2023-01-15T07:16:58;6.10;91.30
21331;DHT22;10824;51.632;4.950;2023-01-15T07:19:25;6.10;90.80
21331;DHT22;10824;51.632;4.950;2023-01-15T07:21:53;6.00;90.10
21331;DHT22;10824;51.632;4.950;2023-01-15T07:24:20;6.00;90.30
21331;DHT22;10824;51.632;4.950;2023-01-15T07:26:48;6.00;91.20
21331;DHT22;10824;51.632;4.950;2023-01-15T07:29:15;6.00;90.70
21331;DHT22;10824;51.632;4.950;2023-01-15T07:31:42;6.00;91.30
21331;DHT22;10824;51.632;4.950;2023-01-15T07:34:09;6.00;89.00
21331;DHT22;10824;51.632;4.950;2023-01-15T07:36:37;5.90;91.10
21331;DHT22;10824;51.632;4.950;2023-01-15T07:39:05;5.90;90.00
21331;DHT22;10824;51.632;4.950;2023-01-15T07:41:33;5.90;90.00
21331;DHT22;10824;51.632;4.950;2023-01-15T07:44:22;5.90;88.80
21331;DHT22;10824;51.632;4.950;2023-01-15T07:47:21;5.90;88.80
21331;DHT22;10824;51.632;4.950;2023-01-15T07:50:12;5.80;89.30
21331;DHT22;10824;51.632;4.950;2023-01-15T07:52:40;5.80;87.70
21331;DHT22;10824;51.632;4.950;2023-01-15T07:55:08;5.80;87.20
21331;DHT22;10824;51.632;4.950;2023-01-15T07:57:36;5.80;87.20
21331;DHT22;10824;51.632;4.950;2023-01-15T08:00:15;5.70;87.70
21331;DHT22;10824;51.632;4.950;2023-01-15T08:02:45;5.70;87.80
21331;DHT22;10824;51.632;4.950;2023-01-15T08:05:18;5.70;88.30
21331;DHT22;10824;51.632;4.950;2023-01-15T08:07:45;5.70;88.30
21331;DHT22;10824;51.632;4.950;2023-01-15T08:10:22;5.70;87.60
21331;DHT22;10824;51.632;4.950;2023-01-15T08:12:51;5.80;87.30
21331;DHT22;10824;51.632;4.950;2023-01-15T08:15:38;5.80;86.50
21331;DHT22;10824;51.632;4.950;2023-01-15T08:18:06;5.80;85.90
21331;DHT22;10824;51.632;4.950;2023-01-15T08:20:34;5.80;84.70
21331;DHT22;10824;51.632;4.950;2023-01-15T08:23:02;5.80;85.80
21331;DHT22;10824;51.632;4.950;2023-01-15T08:25:29;5.80;83.50
21331;DHT22;10824;51.632;4.950;2023-01-15T08:28:00;5.80;82.90
21331;DHT22;10824;51.632;4.950;2023-01-15T08:30:30;5.80;81.40
21331;DHT22;10824;51.632;4.950;2023-01-15T08:32:59;5.90;80.10
21331;DHT22;10824;51.632;4.950;2023-01-15T08:35:29;5.90;80.10
21331;DHT22;10824;51.632;4.950;2023-01-15T08:37:57;5.90;80.80
21331;DHT22;10824;51.632;4.950;2023-01-15T08:40:24;5.90;79.60
21331;DHT22;10824;51.632;4.950;2023-01-15T08:42:53;5.90;80.10
21331;DHT22;10824;51.632;4.950;2023-01-15T08:45:24;5.90;78.90
21331;DHT22;10824;51.632;4.950;2023-01-15T08:47:55;5.90;79.70
21331;DHT22;10824;51.632;4.950;2023-01-15T08:50:26;5.90;80.30
21331;DHT22;10824;51.632;4.950;2023-01-15T08:52:53;5.90;81.60
21331;DHT22;10824;51.632;4.950;2023-01-15T08:55:20;6.00;82.30
21331;DHT22;10824;51.632;4.950;2023-01-15T08:57:47;6.00;83.80
21331;DHT22;10824;51.632;4.950;2023-01-15T09:00:15;6.00;83.80
21331;DHT22;10824;51.632;4.950;2023-01-15T09:02:45;6.00;85.00
21331;DHT22;10824;51.632;4.950;2023-01-15T09:05:16;6.10;85.10
21331;DHT22;10824;51.632;4.950;2023-01-15T09:07:43;6.10;86.10
21331;DHT22;10824;51.632;4.950;2023-01-15T09:10:10;6.10;86.30
21331;DHT22;10824;51.632;4.950;2023-01-15T09:12:40;6.20;87.70
21331;DHT22;10824;51.632;4.950;2023-01-15T09:15:08;6.20;87.10
21331;DHT22;10824;51.632;4.950;2023-01-15T09:17:35;6.20;86.50
21331;DHT22;10824;51.632;4.950;2023-01-15T09:20:08;6.30;85.40
21331;DHT22;10824;51.632;4.950;2023-01-15T09:22:36;6.30;85.90
21331;DHT22;10824;51.632;4.950;2023-01-15T09:25:06;6.30;86.50
21331;DHT22;10824;51.632;4.950;2023-01-15T09:27:33;6.30;85.80
21331;DHT22;10824;51.632;4.950;2023-01-15T09:30:01;6.30;85.30
21331;DHT22;10824;51.632;4.950;2023-01-15T09:32:28;6.30;84.00
21331;DHT22;10824;51.632;4.950;2023-01-15T09:34:55;6.30;83.20
21331;DHT22;10824;51.632;4.950;2023-01-15T09:37:22;6.30;85.00
21331;DHT22;10824;51.632;4.950;2023-01-15T09:39:49;6.40;84.10
21331;DHT22;10824;51.632;4.950;2023-01-15T09:42:35;6.50;83.40
21331;DHT22;10824;51.632;4.950;2023-01-15T09:53:31;6.90;78.50
21331;DHT22;10824;51.632;4.950;2023-01-15T09:56:01;6.80;79.30
21331;DHT22;10824;51.632;4.950;2023-01-15T09:58:35;6.80;79.60
21331;DHT22;10824;51.632;4.950;2023-01-15T10:01:18;6.90;78.10
21331;DHT22;10824;51.632;4.950;2023-01-15T10:03:56;7.10;74.80
21331;DHT22;10824;51.632;4.950;2023-01-15T10:06:32;7.10;74.50
21331;DHT22;10824;51.632;4.950;2023-01-15T10:09:19;7.10;74.40
21331;DHT22;10824;51.632;4.950;2023-01-15T10:12:12;7.20;72.60
21331;DHT22;10824;51.632;4.950;2023-01-15T10:17:45;7.30;71.70
21331;DHT22;10824;51.632;4.950;2023-01-15T10:26:16;7.20;72.10
21331;DHT22;10824;51.632;4.950;2023-01-15T10:29:08;7.30;74.80
21331;DHT22;10824;51.632;4.950;2023-01-15T10:31:52;7.20;73.90
21331;DHT22;10824;51.632;4.950;2023-01-15T10:46:16;7.40;75.90
21331;DHT22;10824;51.632;4.950;2023-01-15T10:51:24;7.30;80.80
21331;DHT22;10824;51.632;4.950;2023-01-15T10:54:02;7.20;90.20
21331;DHT22;10824;51.632;4.950;2023-01-15T10:56:35;7.20;89.80
21331;DHT22;10824;51.632;4.950;2023-01-15T10:59:27;7.30;88.70
21331;DHT22;10824;51.632;4.950;2023-01-15T11:02:01;7.20;88.80
21331;DHT22;10824;51.632;4.950;2023-01-15T11:04:31;7.10;88.00
21331;DHT22;10824;51.632;4.950;2023-01-15T11:06:59;7.40;87.30
21331;DHT22;10824;51.632;4.950;2023-01-15T11:09:28;7.50;83.50
21331;DHT22;10824;51.632;4.950;2023-01-15T11:14:45;7.70;84.10
21331;DHT22;10824;51.632;4.950;2023-01-15T11:17:44;7.40;83.90
21331;DHT22;10824;51.632;4.950;2023-01-15T11:20:34;7.30;85.50
21331;DHT22;10824;51.632;4.950;2023-01-15T11:23:07;7.30;87.00
21331;DHT22;10824;51.632;4.950;2023-01-15T11:25:37;7.30;87.50
21331;DHT22;10824;51.632;4.950;2023-01-15T11:28:06;7.30;89.40
21331;DHT22;10824;51.632;4.950;2023-01-15T11:30:37;7.20;87.80
21331;DHT22;10824;51.632;4.950;2023-01-15T11:33:05;7.20;88.60
21331;DHT22;10824;51.632;4.950;2023-01-15T11:35:56;7.20;90.00
21331;DHT22;10824;51.632;4.950;2023-01-15T11:38:27;7.30;92.60
21331;DHT22;10824;51.632;4.950;2023-01-15T11:40:58;7.20;89.70
21331;DHT22;10824;51.632;4.950;2023-01-15T11:43:27;7.20;90.10
21331;DHT22;10824;51.632;4.950;2023-01-15T11:46:27;7.20;90.10
21331;DHT22;10824;51.632;4.950;2023-01-15T11:49:20;7.20;90.90
21331;DHT22;10824;51.632;4.950;2023-01-15T11:52:29;7.00;91.80
21331;DHT22;10824;51.632;4.950;2023-01-15T11:54:55;6.90;97.40
21331;DHT22;10824;51.632;4.950;2023-01-15T11:57:30;6.80;99.90
21331;DHT22;10824;51.632;4.950;2023-01-15T12:00:00;6.80;99.90
21331;DHT22;10824;51.632;4.950;2023-01-15T12:02:36;6.70;99.90
21331;DHT22;10824;51.632;4.950;2023-01-15T12:05:31;6.70;99.90
21331;DHT22;10824;51.632;4.950;2023-01-15T12:08:32;6.80;99.90
21331;DHT22;10824;51.632;4.950;2023-01-15T12:14:20;6.70;99.90
21331;DHT22;10824;51.632;4.950;2023-01-15T12:33:41;6.90;99.90
21331;DHT22;10824;51.632;4.950;2023-01-15T12:36:18;7.00;99.90
21331;DHT22;10824;51.632;4.950;2023-01-15T12:39:08;7.10;99.90
21331;DHT22;10824;51.632;4.950;2023-01-15T12:41:41;7.10;99.90
21331;DHT22;10824;51.632;4.950;2023-01-15T12:47:17;7.20;98.30
21331;DHT22;10824;51.632;4.950;2023-01-15T12:49:58;7.30;98.10
21331;DHT22;10824;51.632;4.950;2023-01-15T12:52:34;7.40;98.20
21331;DHT22;10824;51.632;4.950;2023-01-15T12:55:13;7.40;96.10
21331;DHT22;10824;51.632;4.950;2023-01-15T12:57:50;7.30;95.70
21331;DHT22;10824;51.632;4.950;2023-01-15T13:00:29;7.30;96.40
21331;DHT22;10824;51.632;4.950;2023-01-15T13:03:22;7.30;98.00
21331;DHT22;10824;51.632;4.950;2023-01-15T13:05:57;7.40;95.80
21331;DHT22;10824;51.632;4.950;2023-01-15T13:08:53;7.60;96.10
21331;DHT22;10824;51.632;4.950;2023-01-15T13:11:21;7.70;94.50
21331;DHT22;10824;51.632;4.950;2023-01-15T13:13:48;7.60;90.90
21331;DHT22;10824;51.632;4.950;2023-01-15T13:16:50;7.60;90.30
21331;DHT22;10824;51.632;4.950;2023-01-15T13:22:15;7.40;94.10
21331;DHT22;10824;51.632;4.950;2023-01-15T13:31:30;7.10;99.90
21331;DHT22;10824;51.632;4.950;2023-01-15T13:34:09;7.10;99.60
21331;DHT22;10824;51.632;4.950;2023-01-15T13:36:45;7.10;99.90
21331;DHT22;10824;51.632;4.950;2023-01-15T13:39:23;7.10;99.90
21331;DHT22;10824;51.632;4.950;2023-01-15T13:41:52;7.30;99.90
21331;DHT22;10824;51.632;4.950;2023-01-15T13:44:45;7.40;99.20
21331;DHT22;10824;51.632;4.950;2023-01-15T13:47:22;7.50;97.70
21331;DHT22;10824;51.632;4.950;2023-01-15T13:49:54;7.50;97.50
21331;DHT22;10824;51.632;4.950;2023-01-15T13:52:34;7.50;95.90
21331;DHT22;10824;51.632;4.950;2023-01-15T13:55:25;7.50;94.90
21331;DHT22;10824;51.632;4.950;2023-01-15T13:57:56;7.50;95.80
21331;DHT22;10824;51.632;4.950;2023-01-15T14:00:34;7.50;96.00
21331;DHT22;10824;51.632;4.950;2023-01-15T14:03:26;7.60;95.00
21331;DHT22;10824;51.632;4.950;2023-01-15T14:06:02;7.60;96.10
21331;DHT22;10824;51.632;4.950;2023-01-15T14:08:39;7.70;97.10
21331;DHT22;10824;51.632;4.950;2023-01-15T14:11:30;7.60;96.70
21331;DHT22;10824;51.632;4.950;2023-01-15T14:14:13;7.60;95.00
21331;DHT22;10824;51.632;4.950;2023-01-15T14:19:19;7.60;93.70
21331;DHT22;10824;51.632;4.950;2023-01-15T14:22:11;7.60;92.90
21331;DHT22;10824;51.632;4.950;2023-01-15T14:24:56;7.70;90.50
21331;DHT22;10824;51.632;4.950;2023-01-15T14:30:57;7.70;91.30
21331;DHT22;10824;51.632;4.950;2023-01-15T14:33:51;7.70;93.30
21331;DHT22;10824;51.632;4.950;2023-01-15T14:36:38;7.70;91.00
21331;DHT22;10824;51.632;4.950;2023-01-15T14:39:35;7.70;89.10
21331;DHT22;10824;51.632;4.950;2023-01-15T14:42:06;7.70;89.60
21331;DHT22;10824;51.632;4.950;2023-01-15T14:47:52;7.70;88.20
21331;DHT22;10824;51.632;4.950;2023-01-15T14:50:40;7.70;89.20
21331;DHT22;10824;51.632;4.950;2023-01-15T14:53:16;7.70;88.10
21331;DHT22;10824;51.632;4.950;2023-01-15T14:55:51;7.70;88.70
21331;DHT22;10824;51.632;4.950;2023-01-15T15:04:10;7.60;87.00
21331;DHT22;10824;51.632;4.950;2023-01-15T15:07:15;7.60;88.00
21331;DHT22;10824;51.632;4.950;2023-01-15T15:10:12;7.60;89.70
21331;DHT22;10824;51.632;4.950;2023-01-15T15:12:57;7.60;90.80
21331;DHT22;10824;51.632;4.950;2023-01-15T15:18:18;7.60;89.70
21331;DHT22;10824;51.632;4.950;2023-01-15T15:23:41;7.50;90.40
21331;DHT22;10824;51.632;4.950;2023-01-15T15:26:28;7.50;89.70
21331;DHT22;10824;51.632;4.950;2023-01-15T15:29:13;7.50;90.50
21331;DHT22;10824;51.632;4.950;2023-01-15T15:31:56;7.40;91.20
21331;DHT22;10824;51.632;4.950;2023-01-15T15:34:46;7.30;92.30
21331;DHT22;10824;51.632;4.950;2023-01-15T15:37:19;7.20;93.80
21331;DHT22;10824;51.632;4.950;2023-01-15T15:40:00;7.20;93.20
21331;DHT22;10824;51.632;4.950;2023-01-15T15:42:38;7.10;94.40
21331;DHT22;10824;51.632;4.950;2023-01-15T15:45:28;7.00;94.40
21331;DHT22;10824;51.632;4.950;2023-01-15T15:48:30;7.00;95.00
21331;DHT22;10824;51.632;4.950;2023-01-15T15:51:35;6.90;95.80
21331;DHT22;10824;51.632;4.950;2023-01-15T15:56:39;6.90;95.90
21331;DHT22;10824;51.632;4.950;2023-01-15T15:59:22;6.80;96.50
21331;DHT22;10824;51.632;4.950;2023-01-15T16:01:52;6.80;96.80
21331;DHT22;10824;51.632;4.950;2023-01-15T16:04:20;6.80;97.00
21331;DHT22;10824;51.632;4.950;2023-01-15T16:06:47;6.80;97.70
21331;DHT22;10824;51.632;4.950;2023-01-15T16:09:22;6.70;97.30
21331;DHT22;10824;51.632;4.950;2023-01-15T16:11:51;6.70;97.20
21331;DHT22;10824;51.632;4.950;2023-01-15T16:14:24;6.80;96.70
21331;DHT22;10824;51.632;4.950;2023-01-15T16:16:52;6.70;97.50
21331;DHT22;10824;51.632;4.950;2023-01-15T16:19:22;6.70;96.60
21331;DHT22;10824;51.632;4.950;2023-01-15T16:21:52;6.70;96.90
21331;DHT22;10824;51.632;4.950;2023-01-15T16:24:27;6.60;97.00
21331;DHT22;10824;51.632;4.950;2023-01-15T16:27:14;6.60;97.20
21331;DHT22;10824;51.632;4.950;2023-01-15T16:29:49;6.60;98.00
21331;DHT22;10824;51.632;4.950;2023-01-15T16:32:22;6.60;98.30
21331;DHT22;10824;51.632;4.950;2023-01-15T16:35:04;6.50;98.80
21331;DHT22;10824;51.632;4.950;2023-01-15T16:37:32;6.50;98.80
21331;DHT22;10824;51.632;4.950;2023-01-15T16:40:03;6.60;98.30
21331;DHT22;10824;51.632;4.950;2023-01-15T16:42:36;6.60;98.30
21331;DHT22;10824;51.632;4.950;2023-01-15T16:45:21;6.50;98.80
21331;DHT22;10824;51.632;4.950;2023-01-15T16:48:09;6.50;98.80
21331;DHT22;10824;51.632;4.950;2023-01-15T16:50:38;6.50;99.10
21331;DHT22;10824;51.632;4.950;2023-01-15T16:53:37;6.40;99.70
21331;DHT22;10824;51.632;4.950;2023-01-15T16:56:23;6.40;99.80
21331;DHT22;10824;51.632;4.950;2023-01-15T16:58:51;6.30;99.90
21331;DHT22;10824;51.632;4.950;2023-01-15T17:01:35;6.20;99.90
21331;DHT22;10824;51.632;4.950;2023-01-15T17:04:26;6.30;99.90
21331;DHT22;10824;51.632;4.950;2023-01-15T17:06:59;6.20;99.90
21331;DHT22;10824;51.632;4.950;2023-01-15T17:09:31;6.20;99.90
21331;DHT22;10824;51.632;4.950;2023-01-15T17:12:05;6.20;99.90
21331;DHT22;10824;51.632;4.950;2023-01-15T17:14:35;6.10;99.90
21331;DHT22;10824;51.632;4.950;2023-01-15T17:17:34;6.10;99.90
21331;DHT22;10824;51.632;4.950;2023-01-15T17:20:08;6.00;99.90
21331;DHT22;10824;51.632;4.950;2023-01-15T17:22:41;6.00;99.90
21331;DHT22;10824;51.632;4.950;2023-01-15T17:25:27;6.00;99.90
21331;DHT22;10824;51.632;4.950;2023-01-15T17:27:58;6.00;99.90
21331;DHT22;10824;51.632;4.950;2023-01-15T17:30:30;5.90;99.90
21331;DHT22;10824;51.632;4.950;2023-01-15T17:33:00;5.90;99.90
21331;DHT22;10824;51.632;4.950;2023-01-15T17:35:34;5.90;99.90
21331;DHT22;10824;51.632;4.950;2023-01-15T17:38:02;5.90;99.90
21331;DHT22;10824;51.632;4.950;2023-01-15T17:40:30;5.90;99.90
21331;DHT22;10824;51.632;4.950;2023-01-15T17:42:58;5.90;99.90
21331;DHT22;10824;51.632;4.950;2023-01-15T17:45:29;5.90;99.90
21331;DHT22;10824;51.632;4.950;2023-01-15T17:47:57;5.80;99.90
21331;DHT22;10824;51.632;4.950;2023-01-15T17:50:24;5.80;99.90
21331;DHT22;10824;51.632;4.950;2023-01-15T17:52:51;5.80;99.90
21331;DHT22;10824;51.632;4.950;2023-01-15T17:55:20;5.80;99.90
21331;DHT22;10824;51.632;4.950;2023-01-15T17:58:11;5.70;99.90
21331;DHT22;10824;51.632;4.950;2023-01-15T18:00:57;5.70;99.90
21331;DHT22;10824;51.632;4.950;2023-01-15T18:03:49;5.70;99.90
21331;DHT22;10824;51.632;4.950;2023-01-15T18:06:36;5.70;99.90
21331;DHT22;10824;51.632;4.950;2023-01-15T18:09:06;5.70;99.90
21331;DHT22;10824;51.632;4.950;2023-01-15T18:11:33;5.60;99.90
21331;DHT22;10824;51.632;4.950;2023-01-15T18:14:00;5.60;99.90
21331;DHT22;10824;51.632;4.950;2023-01-15T18:16:28;5.60;99.90
21331;DHT22;10824;51.632;4.950;2023-01-15T18:18:55;5.60;99.90
21331;DHT22;10824;51.632;4.950;2023-01-15T18:21:23;5.60;99.90
21331;DHT22;10824;51.632;4.950;2023-01-15T18:23:52;5.60;99.90
21331;DHT22;10824;51.632;4.950;2023-01-15T18:26:19;5.50;99.90
21331;DHT22;10824;51.632;4.950;2023-01-15T18:28:47;5.60;99.90
21331;DHT22;10824;51.632;4.950;2023-01-15T18:31:14;5.50;99.90
21331;DHT22;10824;51.632;4.950;2023-01-15T18:33:45;5.50;99.90